createdAt,value
2017-12-16T00:00:19.112Z,965.9
2017-12-16T00:00:57.052Z,965.8
2017-12-16T00:01:59.570Z,965.8
2017-12-16T00:03:02.166Z,965.8
2017-12-16T00:04:04.704Z,965.9
2017-12-16T00:05:07.343Z,965.9
2017-12-16T00:06:09.994Z,965.9
2017-12-16T00:07:12.566Z,965.9
2017-12-16T00:08:15.024Z,966
2017-12-16T00:09:17.772Z,966.1
2017-12-16T00:10:20.269Z,966
2017-12-16T00:11:24.936Z,966.1
2017-12-16T00:12:27.471Z,966.1
2017-12-16T00:13:30.060Z,966
2017-12-16T00:14:32.552Z,966.1
2017-12-16T00:15:34.977Z,966.1
2017-12-16T00:16:37.488Z,966.1
2017-12-16T00:17:40.025Z,966.1
2017-12-16T00:18:42.570Z,966.1
2017-12-16T00:19:44.999Z,966.2
2017-12-16T00:20:47.416Z,966.1
2017-12-16T00:21:49.977Z,966.1
2017-12-16T00:22:52.437Z,966
2017-12-16T00:23:54.938Z,966
2017-12-16T00:24:57.355Z,966.2
2017-12-16T00:25:59.905Z,966.2
2017-12-16T00:27:02.687Z,966.2
2017-12-16T00:28:11.776Z,966
2017-12-16T00:29:15.504Z,966.3
2017-12-16T00:30:18.016Z,966.3
2017-12-16T00:31:20.558Z,966.3
2017-12-16T00:32:23.126Z,966.2
2017-12-16T00:33:25.699Z,966.2
2017-12-16T00:34:28.663Z,966.3
2017-12-16T00:35:31.366Z,966.3
2017-12-16T00:36:33.862Z,966.3
2017-12-16T00:37:41.953Z,966.3
2017-12-16T00:38:44.429Z,966.3
2017-12-16T00:39:46.819Z,966.3
2017-12-16T00:40:49.417Z,966.3
2017-12-16T00:41:51.917Z,966.3
2017-12-16T00:42:54.465Z,966.3
2017-12-16T00:43:58.921Z,966.2
2017-12-16T00:45:01.425Z,966.3
2017-12-16T00:46:03.926Z,966.3
2017-12-16T00:47:06.403Z,966.3
2017-12-16T00:48:08.925Z,966.3
2017-12-16T00:49:11.485Z,966.4
2017-12-16T00:50:13.965Z,966.4
2017-12-16T00:51:16.489Z,966.3
2017-12-16T00:52:19.021Z,966.3
2017-12-16T00:53:21.549Z,966.4
2017-12-16T00:54:24.060Z,966.4
2017-12-16T00:55:26.677Z,966.2
2017-12-16T00:56:29.288Z,966.4
2017-12-16T00:57:31.755Z,966.2
2017-12-16T00:58:34.453Z,966.4
2017-12-16T00:59:36.943Z,966.4
2017-12-16T01:00:39.587Z,966.4
2017-12-16T01:01:42.157Z,966.5
2017-12-16T01:02:44.615Z,966.4
2017-12-16T01:03:47.143Z,966.5
2017-12-16T01:04:49.614Z,966.5
2017-12-16T01:05:52.153Z,966.5
2017-12-16T01:06:54.586Z,966.5
2017-12-16T01:07:57.083Z,966.5
2017-12-16T01:08:59.678Z,966.5
2017-12-16T01:10:02.334Z,966.4
2017-12-16T01:11:04.848Z,966.6
2017-12-16T01:12:08.104Z,966.7
2017-12-16T01:13:10.544Z,966.6
2017-12-16T01:14:13.123Z,966.6
2017-12-16T01:15:15.582Z,966.7
2017-12-16T01:16:18.111Z,966.6
2017-12-16T01:17:20.678Z,966.6
2017-12-16T01:18:23.142Z,966.6
2017-12-16T01:19:25.814Z,966.7
2017-12-16T01:20:28.544Z,966.7
2017-12-16T01:21:30.988Z,966.7
2017-12-16T01:22:33.402Z,966.7
2017-12-16T01:23:35.891Z,966.7
2017-12-16T01:24:38.575Z,966.4
2017-12-16T01:25:41.016Z,966.7
2017-12-16T01:26:43.595Z,966.7
2017-12-16T01:27:46.079Z,966.8
2017-12-16T01:28:48.551Z,966.8
2017-12-16T01:29:51.077Z,966.8
2017-12-16T01:30:53.568Z,966.8
2017-12-16T01:31:56.034Z,966.7
2017-12-16T01:32:59.469Z,966.8
2017-12-16T01:34:02.040Z,966.8
2017-12-16T01:35:04.489Z,966.8
2017-12-16T01:36:06.844Z,966.8
2017-12-16T01:37:09.296Z,966.8
2017-12-16T01:38:11.710Z,966.8
2017-12-16T01:39:14.140Z,966.9
2017-12-16T01:40:16.577Z,966.9
2017-12-16T01:41:19.034Z,966.8
2017-12-16T01:42:21.496Z,966.9
2017-12-16T01:43:23.902Z,967
2017-12-16T01:44:26.297Z,967
2017-12-16T01:45:28.746Z,967
2017-12-16T01:46:31.089Z,967
2017-12-16T01:47:36.892Z,967
2017-12-16T01:48:39.300Z,966.9
2017-12-16T01:49:41.699Z,967.1
2017-12-16T01:50:44.126Z,967.1
2017-12-16T01:51:46.586Z,967.1
2017-12-16T01:52:49.039Z,967.1
2017-12-16T01:53:51.446Z,967.1
2017-12-16T01:54:53.911Z,967.1
2017-12-16T01:55:56.334Z,967.1
2017-12-16T01:56:59.147Z,967.1
2017-12-16T01:58:01.596Z,967.1
2017-12-16T01:59:04.019Z,967.1
2017-12-16T02:00:06.431Z,967.1
2017-12-16T02:01:08.860Z,967
2017-12-16T02:02:11.257Z,967.1
2017-12-16T02:03:13.643Z,967
2017-12-16T02:04:16.061Z,967
2017-12-16T02:05:18.588Z,967.1
2017-12-16T02:06:21.163Z,967.1
2017-12-16T02:07:23.583Z,967.1
2017-12-16T02:08:26.027Z,967.2
2017-12-16T02:09:28.396Z,967.2
2017-12-16T02:10:30.806Z,967.2
2017-12-16T02:11:33.221Z,967.2
2017-12-16T02:12:35.615Z,967.1
2017-12-16T02:13:38.112Z,967.2
2017-12-16T02:14:40.527Z,967.2
2017-12-16T02:15:43.044Z,967.2
2017-12-16T02:16:45.455Z,967.2
2017-12-16T02:17:47.886Z,967.2
2017-12-16T02:18:50.300Z,967.3
2017-12-16T02:19:52.707Z,967.2
2017-12-16T02:20:55.094Z,967.2
2017-12-16T02:21:57.450Z,967.3
2017-12-16T02:22:59.819Z,967.2
2017-12-16T02:24:02.284Z,967.1
2017-12-16T02:25:04.694Z,967.3
2017-12-16T02:26:07.061Z,967.3
2017-12-16T02:27:09.575Z,967.3
2017-12-16T02:28:12.035Z,967.3
2017-12-16T02:29:14.519Z,967.2
2017-12-16T02:30:16.971Z,967.3
2017-12-16T02:31:19.958Z,967.2
2017-12-16T02:32:22.469Z,967.2
2017-12-16T02:33:24.914Z,967.2
2017-12-16T02:34:27.340Z,967.2
2017-12-16T02:35:29.839Z,967.2
2017-12-16T02:36:32.187Z,967.2
2017-12-16T02:37:34.655Z,967.2
2017-12-16T02:38:37.066Z,967.2
2017-12-16T02:39:39.533Z,967.3
2017-12-16T02:40:41.893Z,967.2
2017-12-16T02:41:44.352Z,967.3
2017-12-16T02:42:46.787Z,967.3
2017-12-16T02:43:49.186Z,967.2
2017-12-16T02:44:51.586Z,967.3
2017-12-16T02:45:54.000Z,967.1
2017-12-16T02:46:56.444Z,967.3
2017-12-16T02:47:58.980Z,967.3
2017-12-16T02:49:01.456Z,967.3
2017-12-16T02:50:03.911Z,967.3
2017-12-16T02:51:06.316Z,967.2
2017-12-16T02:52:08.813Z,967.3
2017-12-16T02:53:11.222Z,967.4
2017-12-16T02:54:13.681Z,967.3
2017-12-16T02:55:16.067Z,967.3
2017-12-16T02:56:18.525Z,967.4
2017-12-16T02:57:20.926Z,967.3
2017-12-16T02:58:23.340Z,967.4
2017-12-16T02:59:25.831Z,967.3
2017-12-16T03:00:28.247Z,967.3
2017-12-16T03:01:30.683Z,967.3
2017-12-16T03:02:33.169Z,967.2
2017-12-16T03:03:35.589Z,967.3
2017-12-16T03:04:38.312Z,967.3
2017-12-16T03:05:40.703Z,967.3
2017-12-16T03:06:43.167Z,967.4
2017-12-16T03:07:45.598Z,967.4
2017-12-16T03:08:48.114Z,967.4
2017-12-16T03:09:50.548Z,967.4
2017-12-16T03:10:52.944Z,967.4
2017-12-16T03:11:55.332Z,967.4
2017-12-16T03:12:58.124Z,967.4
2017-12-16T03:14:00.545Z,967.4
2017-12-16T03:15:02.968Z,967.4
2017-12-16T03:16:05.306Z,967.5
2017-12-16T03:17:07.987Z,967.3
2017-12-16T03:18:10.431Z,967.4
2017-12-16T03:19:12.861Z,967.4
2017-12-16T03:20:15.315Z,967.4
2017-12-16T03:21:17.694Z,967.4
2017-12-16T03:22:20.175Z,967.2
2017-12-16T03:23:22.616Z,967.5
2017-12-16T03:24:25.005Z,967.4
2017-12-16T03:25:27.507Z,967.5
2017-12-16T03:26:29.968Z,967.5
2017-12-16T03:27:32.336Z,967.5
2017-12-16T03:28:34.704Z,967.6
2017-12-16T03:29:37.204Z,967.6
2017-12-16T03:30:39.649Z,967.6
2017-12-16T03:31:42.103Z,967.6
2017-12-16T03:32:44.500Z,967.6
2017-12-16T03:33:47.053Z,967.6
2017-12-16T03:34:49.472Z,967.7
2017-12-16T03:35:51.894Z,967.7
2017-12-16T03:36:54.260Z,967.7
2017-12-16T03:37:56.689Z,967.7
2017-12-16T03:38:59.131Z,967.7
2017-12-16T03:40:01.541Z,967.7
2017-12-16T03:41:03.904Z,967.7
2017-12-16T03:42:06.284Z,967.7
2017-12-16T03:43:08.683Z,967.7
2017-12-16T03:44:11.186Z,967.8
2017-12-16T03:45:13.666Z,967.8
2017-12-16T03:46:16.100Z,967.8
2017-12-16T03:47:18.476Z,967.8
2017-12-16T03:48:20.931Z,967.8
2017-12-16T03:49:23.344Z,967.8
2017-12-16T03:50:25.712Z,967.8
2017-12-16T03:51:28.107Z,967.8
2017-12-16T03:52:30.485Z,967.8
2017-12-16T03:53:32.856Z,967.6
2017-12-16T03:54:35.247Z,967.8
2017-12-16T03:55:37.701Z,967.9
2017-12-16T03:56:40.128Z,967.9
2017-12-16T03:57:42.475Z,967.9
2017-12-16T03:58:44.936Z,968
2017-12-16T03:59:47.316Z,968
2017-12-16T04:00:49.787Z,968
2017-12-16T04:01:52.178Z,968
2017-12-16T04:02:56.255Z,968
2017-12-16T04:03:58.685Z,968.1
2017-12-16T04:05:01.172Z,968.1
2017-12-16T04:06:03.584Z,968
2017-12-16T04:07:05.968Z,968
2017-12-16T04:08:08.403Z,967.8
2017-12-16T04:09:10.892Z,968
2017-12-16T04:10:13.250Z,968.1
2017-12-16T04:11:15.665Z,968.1
2017-12-16T04:12:18.015Z,968.1
2017-12-16T04:13:20.454Z,968.2
2017-12-16T04:14:22.829Z,968.1
2017-12-16T04:15:25.255Z,968.1
2017-12-16T04:16:27.698Z,968.1
2017-12-16T04:17:30.110Z,968.2
2017-12-16T04:18:32.535Z,968.2
2017-12-16T04:19:34.953Z,968.2
2017-12-16T04:20:37.410Z,968.2
2017-12-16T04:21:39.900Z,968.2
2017-12-16T04:22:42.275Z,968.2
2017-12-16T04:23:44.638Z,968.2
2017-12-16T04:24:47.030Z,968.3
2017-12-16T04:25:49.447Z,968.2
2017-12-16T04:26:51.807Z,968.2
2017-12-16T04:27:54.191Z,968.2
2017-12-16T04:28:56.552Z,968.3
2017-12-16T04:29:58.937Z,968.3
2017-12-16T04:31:01.835Z,968.2
2017-12-16T04:32:04.271Z,968.3
2017-12-16T04:33:06.665Z,968.3
2017-12-16T04:34:09.184Z,968.4
2017-12-16T04:35:11.658Z,968.3
2017-12-16T04:36:14.040Z,968.3
2017-12-16T04:37:16.397Z,968.3
2017-12-16T04:38:18.742Z,968.3
2017-12-16T04:39:21.210Z,968.1
2017-12-16T04:40:23.651Z,968.3
2017-12-16T04:41:26.044Z,968.3
2017-12-16T04:42:28.603Z,968.3
2017-12-16T04:43:31.039Z,968.3
2017-12-16T04:44:33.450Z,968.3
2017-12-16T04:45:35.849Z,968.3
2017-12-16T04:46:38.268Z,968.3
2017-12-16T04:47:40.723Z,968.3
2017-12-16T04:48:43.097Z,968.2
2017-12-16T04:49:46.357Z,968.1
2017-12-16T04:50:48.858Z,968.2
2017-12-16T04:51:51.317Z,968.3
2017-12-16T04:52:53.684Z,968.3
2017-12-16T04:53:56.204Z,968.2
2017-12-16T04:54:58.594Z,968.2
2017-12-16T04:56:01.052Z,968.3
2017-12-16T04:57:03.438Z,968.3
2017-12-16T04:58:05.888Z,968.3
2017-12-16T04:59:08.344Z,968.3
2017-12-16T05:00:10.756Z,968.3
2017-12-16T05:01:13.383Z,968.3
2017-12-16T05:02:15.813Z,968.4
2017-12-16T05:03:18.290Z,968.5
2017-12-16T05:04:20.820Z,968.4
2017-12-16T05:05:23.245Z,968.5
2017-12-16T05:06:25.719Z,968.5
2017-12-16T05:07:28.124Z,968.4
2017-12-16T05:08:30.631Z,968.5
2017-12-16T05:09:33.051Z,968.4
2017-12-16T05:10:35.775Z,968.4
2017-12-16T05:11:38.187Z,968.5
2017-12-16T05:12:40.631Z,968.5
2017-12-16T05:13:43.038Z,968.4
2017-12-16T05:14:45.450Z,968.5
2017-12-16T05:15:47.885Z,968.4
2017-12-16T05:16:50.346Z,968.4
2017-12-16T05:17:52.775Z,968.5
2017-12-16T05:18:55.295Z,968.5
2017-12-16T05:19:57.744Z,968.5
2017-12-16T05:21:00.136Z,968.5
2017-12-16T05:22:02.634Z,968.6
2017-12-16T05:23:05.159Z,968.5
2017-12-16T05:24:07.607Z,968.5
2017-12-16T05:25:10.122Z,968.5
2017-12-16T05:26:12.522Z,968.5
2017-12-16T05:27:14.957Z,968.5
2017-12-16T05:28:17.533Z,968.5
2017-12-16T05:29:19.949Z,968.6
2017-12-16T05:30:22.346Z,968.6
2017-12-16T05:31:24.822Z,968.6
2017-12-16T05:32:27.242Z,968.6
2017-12-16T05:33:29.706Z,968.6
2017-12-16T05:34:32.171Z,968.6
2017-12-16T05:35:34.589Z,968.6
2017-12-16T05:36:36.968Z,968.6
2017-12-16T05:37:39.447Z,968.6
2017-12-16T05:38:41.865Z,968.6
2017-12-16T05:39:44.491Z,968.6
2017-12-16T05:40:46.922Z,968.6
2017-12-16T05:41:49.359Z,968.6
2017-12-16T05:42:51.834Z,968.6
2017-12-16T05:43:54.246Z,968.7
2017-12-16T05:44:56.650Z,968.7
2017-12-16T05:45:59.106Z,968.7
2017-12-16T05:47:02.572Z,968.7
2017-12-16T05:48:04.986Z,968.7
2017-12-16T05:49:07.505Z,968.7
2017-12-16T05:50:10.201Z,968.7
2017-12-16T05:51:12.615Z,968.7
2017-12-16T05:52:15.027Z,968.7
2017-12-16T05:53:17.420Z,968.8
2017-12-16T05:54:19.802Z,968.7
2017-12-16T05:55:22.233Z,968.7
2017-12-16T05:56:24.648Z,968.7
2017-12-16T05:57:27.034Z,968.7
2017-12-16T05:58:29.979Z,968.8
2017-12-16T05:59:32.519Z,968.8
2017-12-16T06:00:34.876Z,968.8
2017-12-16T06:01:37.347Z,968.7
2017-12-16T06:02:39.800Z,968.8
2017-12-16T06:03:42.175Z,968.7
2017-12-16T06:04:44.595Z,968.8
2017-12-16T06:05:47.131Z,968.8
2017-12-16T06:06:49.683Z,968.8
2017-12-16T06:07:52.183Z,968.8
2017-12-16T06:08:54.678Z,968.8
2017-12-16T06:09:57.048Z,968.9
2017-12-16T06:10:59.451Z,968.9
2017-12-16T06:12:02.003Z,968.9
2017-12-16T06:13:04.446Z,968.9
2017-12-16T06:14:06.806Z,968.8
2017-12-16T06:15:10.026Z,968.8
2017-12-16T06:16:13.625Z,968.8
2017-12-16T06:17:16.303Z,968.8
2017-12-16T06:18:18.695Z,968.9
2017-12-16T06:19:21.275Z,969
2017-12-16T06:20:23.738Z,968.9
2017-12-16T06:21:26.205Z,968.9
2017-12-16T06:22:28.707Z,968.8
2017-12-16T06:23:32.339Z,968.9
2017-12-16T06:24:35.274Z,968.9
2017-12-16T06:25:37.728Z,968.9
2017-12-16T06:26:41.084Z,968.9
2017-12-16T06:27:43.472Z,969
2017-12-16T06:28:45.899Z,968.9
2017-12-16T06:29:48.315Z,969
2017-12-16T06:30:51.945Z,969
2017-12-16T06:31:55.254Z,969.1
2017-12-16T06:32:57.753Z,969
2017-12-16T06:34:00.136Z,969
2017-12-16T06:35:02.554Z,969
2017-12-16T06:36:05.039Z,969.1
2017-12-16T06:37:10.876Z,969
2017-12-16T06:38:21.359Z,969
2017-12-16T06:39:27.895Z,968.9
2017-12-16T06:40:34.063Z,969.1
2017-12-16T06:41:40.450Z,969.1
2017-12-16T06:42:47.294Z,969.1
2017-12-16T06:43:50.554Z,969.1
2017-12-16T06:44:54.859Z,969.1
2017-12-16T06:45:58.070Z,969.1
2017-12-16T06:47:01.309Z,969.1
2017-12-16T06:48:06.042Z,969.2
2017-12-16T06:49:09.092Z,969.2
2017-12-16T06:50:11.541Z,969.2
2017-12-16T06:51:13.927Z,969.2
2017-12-16T06:52:16.370Z,969.2
2017-12-16T06:53:18.812Z,969.2
2017-12-16T06:54:21.276Z,969.2
2017-12-16T06:55:23.661Z,969.3
2017-12-16T06:56:26.553Z,969.3
2017-12-16T06:57:29.140Z,969.4
2017-12-16T06:58:31.631Z,969.4
2017-12-16T06:59:34.174Z,969.3
2017-12-16T07:00:37.200Z,969.3
2017-12-16T07:01:41.985Z,969.2
2017-12-16T07:02:44.529Z,969.3
2017-12-16T07:03:47.036Z,969.3
2017-12-16T07:04:49.500Z,969.3
2017-12-16T07:05:52.050Z,969.3
2017-12-16T07:06:54.504Z,969.3
2017-12-16T07:07:56.946Z,969.3
2017-12-16T07:08:59.461Z,969.2
2017-12-16T07:10:02.101Z,969.2
2017-12-16T07:11:04.596Z,969.3
2017-12-16T07:12:07.156Z,969.3
2017-12-16T07:13:09.641Z,969.3
2017-12-16T07:14:12.147Z,969.3
2017-12-16T07:15:14.547Z,969.3
2017-12-16T07:16:16.946Z,969.2
2017-12-16T07:17:19.344Z,969.3
2017-12-16T07:18:21.792Z,969.3
2017-12-16T07:19:24.154Z,969.4
2017-12-16T07:20:27.018Z,969.4
2017-12-16T07:21:29.536Z,969.4
2017-12-16T07:22:32.031Z,969.4
2017-12-16T07:23:34.478Z,969.5
2017-12-16T07:24:37.226Z,969.5
2017-12-16T07:25:39.608Z,969.4
2017-12-16T07:26:42.049Z,969.5
2017-12-16T07:27:44.453Z,969.5
2017-12-16T07:28:46.837Z,969.5
2017-12-16T07:29:49.436Z,969.3
2017-12-16T07:30:51.890Z,969.5
2017-12-16T07:31:54.255Z,969.5
2017-12-16T07:32:56.886Z,969.6
2017-12-16T07:33:59.358Z,969.5
2017-12-16T07:35:01.913Z,969.5
2017-12-16T07:36:04.347Z,969.5
2017-12-16T07:37:08.885Z,969.6
2017-12-16T07:38:11.459Z,969.6
2017-12-16T07:39:13.874Z,969.6
2017-12-16T07:40:16.398Z,969.6
2017-12-16T07:41:18.822Z,969.6
2017-12-16T07:42:21.358Z,969.6
2017-12-16T07:43:23.947Z,969.6
2017-12-16T07:44:26.353Z,969.6
2017-12-16T07:45:28.857Z,969.6
2017-12-16T07:46:31.433Z,969.7
2017-12-16T07:47:33.848Z,969.7
2017-12-16T07:48:36.320Z,969.7
2017-12-16T07:49:38.818Z,969.7
2017-12-16T07:50:41.402Z,969.7
2017-12-16T07:51:43.969Z,969.8
2017-12-16T07:52:46.592Z,969.8
2017-12-16T07:53:49.009Z,969.7
2017-12-16T07:54:51.553Z,969.7
2017-12-16T07:55:54.098Z,969.8
2017-12-16T07:56:56.643Z,969.8
2017-12-16T07:57:59.115Z,969.8
2017-12-16T07:59:01.850Z,969.8
2017-12-16T08:00:04.480Z,969.8
2017-12-16T08:01:06.878Z,969.9
2017-12-16T08:02:09.416Z,969.9
2017-12-16T08:03:11.955Z,969.9
2017-12-16T08:04:14.381Z,969.8
2017-12-16T08:05:16.905Z,969.9
2017-12-16T08:06:19.323Z,969.9
2017-12-16T08:07:21.771Z,969.9
2017-12-16T08:08:24.227Z,970
2017-12-16T08:09:26.798Z,970
2017-12-16T08:10:29.259Z,969.9
2017-12-16T08:11:31.739Z,970
2017-12-16T08:12:34.115Z,970
2017-12-16T08:13:36.526Z,970
2017-12-16T08:14:38.971Z,970
2017-12-16T08:15:41.463Z,970
2017-12-16T08:16:43.906Z,970
2017-12-16T08:17:46.413Z,970
2017-12-16T08:18:48.805Z,970.1
2017-12-16T08:19:51.276Z,970.1
2017-12-16T08:20:53.727Z,970.1
2017-12-16T08:21:56.464Z,970
2017-12-16T08:22:58.880Z,970.1
2017-12-16T08:24:01.543Z,970.1
2017-12-16T08:25:04.056Z,970.1
2017-12-16T08:26:06.688Z,970.1
2017-12-16T08:27:09.123Z,970.1
2017-12-16T08:28:12.475Z,970.1
2017-12-16T08:29:15.055Z,970.1
2017-12-16T08:30:17.566Z,970.1
2017-12-16T08:31:22.912Z,969.9
2017-12-16T08:32:25.452Z,970
2017-12-16T08:33:27.843Z,970.1
2017-12-16T08:34:30.323Z,970.1
2017-12-16T08:35:32.878Z,969.9
2017-12-16T08:36:35.311Z,970.1
2017-12-16T08:37:37.790Z,970.2
2017-12-16T08:38:41.692Z,970.1
2017-12-16T08:39:44.138Z,970.3
2017-12-16T08:40:46.540Z,970.2
2017-12-16T08:41:49.017Z,970.3
2017-12-16T08:42:51.751Z,970.3
2017-12-16T08:43:54.381Z,970.3
2017-12-16T08:44:57.948Z,970.3
2017-12-16T08:46:00.427Z,970.3
2017-12-16T08:47:03.010Z,970.3
2017-12-16T08:48:05.483Z,970.3
2017-12-16T08:49:07.964Z,970.4
2017-12-16T08:50:10.474Z,970.3
2017-12-16T08:51:12.957Z,970.4
2017-12-16T08:52:15.478Z,970.4
2017-12-16T08:53:17.942Z,970.5
2017-12-16T08:54:20.369Z,970.4
2017-12-16T08:55:23.029Z,970.5
2017-12-16T08:56:26.014Z,970.5
2017-12-16T08:57:28.646Z,970.5
2017-12-16T08:58:31.207Z,970.5
2017-12-16T08:59:34.075Z,970.6
2017-12-16T09:00:36.532Z,970.5
2017-12-16T09:01:39.117Z,970.5
2017-12-16T09:02:41.609Z,970.5
2017-12-16T09:03:44.041Z,970.5
2017-12-16T09:04:46.509Z,970.6
2017-12-16T09:05:48.944Z,970.6
2017-12-16T09:06:51.549Z,970.6
2017-12-16T09:07:53.987Z,970.6
2017-12-16T09:08:56.498Z,970.7
2017-12-16T09:10:00.379Z,970.7
2017-12-16T09:11:02.891Z,970.7
2017-12-16T09:12:05.420Z,970.7
2017-12-16T09:13:07.951Z,970.7
2017-12-16T09:14:10.457Z,970.7
2017-12-16T09:15:12.944Z,970.7
2017-12-16T09:16:15.340Z,970.8
2017-12-16T09:17:18.013Z,970.8
2017-12-16T09:18:20.521Z,970.8
2017-12-16T09:19:23.107Z,970.8
2017-12-16T09:20:25.592Z,970.9
2017-12-16T09:21:28.070Z,970.8
2017-12-16T09:22:30.550Z,970.8
2017-12-16T09:23:33.197Z,970.9
2017-12-16T09:24:35.666Z,970.9
2017-12-16T09:25:38.103Z,970.8
2017-12-16T09:26:40.576Z,970.9
2017-12-16T09:27:43.099Z,970.9
2017-12-16T09:28:45.669Z,971
2017-12-16T09:29:48.251Z,971
2017-12-16T09:30:50.804Z,971
2017-12-16T09:31:53.322Z,971
2017-12-16T09:32:55.833Z,971
2017-12-16T09:33:58.350Z,971
2017-12-16T09:35:00.869Z,971.1
2017-12-16T09:36:03.444Z,971.2
2017-12-16T09:37:05.873Z,971.1
2017-12-16T09:38:08.469Z,971
2017-12-16T09:39:10.950Z,971.1
2017-12-16T09:40:13.551Z,971.2
2017-12-16T09:41:20.943Z,971.2
2017-12-16T09:42:23.584Z,971.2
2017-12-16T09:43:26.239Z,971.2
2017-12-16T09:44:28.824Z,971.2
2017-12-16T09:45:31.354Z,971.2
2017-12-16T09:46:33.868Z,971.2
2017-12-16T09:47:36.778Z,971.2
2017-12-16T09:48:39.358Z,971.2
2017-12-16T09:49:41.921Z,971.2
2017-12-16T09:50:44.418Z,971.1
2017-12-16T09:51:46.906Z,971.2
2017-12-16T09:52:49.446Z,971.2
2017-12-16T09:53:51.942Z,971.2
2017-12-16T09:54:54.678Z,971.2
2017-12-16T09:55:57.225Z,971.2
2017-12-16T09:56:59.680Z,971.2
2017-12-16T09:58:02.199Z,971.1
2017-12-16T09:59:04.743Z,971.1
2017-12-16T10:00:07.263Z,971.1
2017-12-16T10:01:09.899Z,971.2
2017-12-16T10:02:12.429Z,971.2
2017-12-16T10:03:15.345Z,971.3
2017-12-16T10:04:17.820Z,971.2
2017-12-16T10:05:20.267Z,971.2
2017-12-16T10:06:22.874Z,971.2
2017-12-16T10:07:25.447Z,971.2
2017-12-16T10:08:27.997Z,971.2
2017-12-16T10:09:30.458Z,971.3
2017-12-16T10:10:32.990Z,971.3
2017-12-16T10:11:35.609Z,971.3
2017-12-16T10:12:38.341Z,971.4
2017-12-16T10:13:41.068Z,971.4
2017-12-16T10:14:43.542Z,971.4
2017-12-16T10:15:46.130Z,971.2
2017-12-16T10:16:52.226Z,971.4
2017-12-16T10:17:54.928Z,971.4
2017-12-16T10:18:57.450Z,971.4
2017-12-16T10:19:59.859Z,971.4
2017-12-16T10:21:02.496Z,971.5
2017-12-16T10:22:05.737Z,971.3
2017-12-16T10:23:08.208Z,971.5
2017-12-16T10:24:10.696Z,971.5
2017-12-16T10:25:13.220Z,971.5
2017-12-16T10:26:15.815Z,971.5
2017-12-16T10:27:18.334Z,971.4
2017-12-16T10:28:20.797Z,971.6
2017-12-16T10:29:23.308Z,971.6
2017-12-16T10:30:25.867Z,971.6
2017-12-16T10:31:28.365Z,971.6
2017-12-16T10:32:30.924Z,971.7
2017-12-16T10:33:33.490Z,971.6
2017-12-16T10:34:35.935Z,971.6
2017-12-16T10:35:38.549Z,971.5
2017-12-16T10:36:41.137Z,971.6
2017-12-16T10:37:43.866Z,971.7
2017-12-16T10:38:46.498Z,971.6
2017-12-16T10:39:49.159Z,971.6
2017-12-16T10:40:51.829Z,971.5
2017-12-16T10:41:54.337Z,971.6
2017-12-16T10:42:57.050Z,971.6
2017-12-16T10:43:59.561Z,971.7
2017-12-16T10:45:02.339Z,971.6
2017-12-16T10:46:05.519Z,971.7
2017-12-16T10:47:08.171Z,971.7
2017-12-16T10:48:10.669Z,971.6
2017-12-16T10:49:13.275Z,971.7
2017-12-16T10:50:15.847Z,971.7
2017-12-16T10:51:18.398Z,971.7
2017-12-16T10:52:21.199Z,971.5
2017-12-16T10:53:28.271Z,971.6
2017-12-16T10:54:30.900Z,971.7
2017-12-16T10:55:33.528Z,971.6
2017-12-16T10:56:36.099Z,971.7
2017-12-16T10:57:38.746Z,971.7
2017-12-16T10:58:41.449Z,971.7
2017-12-16T10:59:44.097Z,971.7
2017-12-16T11:00:46.841Z,971.7
2017-12-16T11:01:50.382Z,971.7
2017-12-16T11:02:52.960Z,971.7
2017-12-16T11:03:55.976Z,971.7
2017-12-16T11:04:58.532Z,971.7
2017-12-16T11:06:01.106Z,971.8
2017-12-16T11:07:03.798Z,971.7
2017-12-16T11:08:07.106Z,971.7
2017-12-16T11:09:09.905Z,971.8
2017-12-16T11:10:12.524Z,971.7
2017-12-16T11:11:15.123Z,971.7
2017-12-16T11:12:17.718Z,971.8
2017-12-16T11:13:20.252Z,971.7
2017-12-16T11:14:22.884Z,971.6
2017-12-16T11:15:25.532Z,971.8
2017-12-16T11:16:28.199Z,971.8
2017-12-16T11:17:30.794Z,971.8
2017-12-16T11:18:33.444Z,971.8
2017-12-16T11:19:37.678Z,971.8
2017-12-16T11:20:40.203Z,971.7
2017-12-16T11:21:42.869Z,971.8
2017-12-16T11:22:45.912Z,971.7
2017-12-16T11:23:48.671Z,971.8
2017-12-16T11:24:51.254Z,971.8
2017-12-16T11:25:53.741Z,971.8
2017-12-16T11:26:56.483Z,971.8
2017-12-16T11:27:58.979Z,971.9
2017-12-16T11:29:01.992Z,971.8
2017-12-16T11:30:04.639Z,971.8
2017-12-16T11:31:07.113Z,971.9
2017-12-16T11:32:09.874Z,971.9
2017-12-16T11:33:12.364Z,971.9
2017-12-16T11:34:14.993Z,971.9
2017-12-16T11:35:17.649Z,972
2017-12-16T11:36:20.258Z,971.9
2017-12-16T11:37:23.796Z,971.9
2017-12-16T11:38:26.389Z,972
2017-12-16T11:39:29.109Z,971.9
2017-12-16T11:40:31.927Z,972
2017-12-16T11:41:34.575Z,971.9
2017-12-16T11:42:37.174Z,972
2017-12-16T11:43:40.004Z,971.9
2017-12-16T11:44:42.767Z,972
2017-12-16T11:45:45.580Z,971.9
2017-12-16T11:46:48.260Z,972
2017-12-16T11:47:50.754Z,972
2017-12-16T11:48:53.505Z,972.1
2017-12-16T11:49:56.124Z,972
2017-12-16T11:50:58.831Z,972
2017-12-16T11:52:01.441Z,972
2017-12-16T11:53:04.287Z,972
2017-12-16T11:54:06.709Z,972
2017-12-16T11:55:09.339Z,972
2017-12-16T11:56:12.038Z,972.1
2017-12-16T11:57:14.608Z,972
2017-12-16T11:58:17.171Z,972
2017-12-16T11:59:19.883Z,972
2017-12-16T12:00:22.605Z,971.9
2017-12-16T12:01:25.158Z,971.8
2017-12-16T12:02:27.814Z,972
2017-12-16T12:03:30.443Z,971.9
2017-12-16T12:04:33.285Z,972
2017-12-16T12:05:36.051Z,971.9
2017-12-16T12:06:38.699Z,972.1
2017-12-16T12:07:41.369Z,972
2017-12-16T12:08:43.987Z,972
2017-12-16T12:09:46.618Z,972
2017-12-16T12:10:49.202Z,972.1
2017-12-16T12:11:51.751Z,972.1
2017-12-16T12:12:54.322Z,972.1
2017-12-16T12:13:57.907Z,972.1
2017-12-16T12:15:00.562Z,972.1
2017-12-16T12:16:03.339Z,972.2
2017-12-16T12:17:06.214Z,972.1
2017-12-16T12:18:08.854Z,972.2
2017-12-16T12:19:13.271Z,972.2
2017-12-16T12:20:15.989Z,972.2
2017-12-16T12:21:18.620Z,972.1
2017-12-16T12:22:22.614Z,972.1
2017-12-16T12:23:25.144Z,972.1
2017-12-16T12:24:27.844Z,972.1
2017-12-16T12:25:30.428Z,972.2
2017-12-16T12:26:33.202Z,972.1
2017-12-16T12:27:35.884Z,972.1
2017-12-16T12:28:39.004Z,972.1
2017-12-16T12:29:41.621Z,972.1
2017-12-16T12:30:44.289Z,972.2
2017-12-16T12:31:46.994Z,972.2
2017-12-16T12:32:49.840Z,972.3
2017-12-16T12:33:52.690Z,972.3
2017-12-16T12:34:55.339Z,972.3
2017-12-16T12:35:57.938Z,972.3
2017-12-16T12:37:00.591Z,972.2
2017-12-16T12:38:03.391Z,972.3
2017-12-16T12:39:06.178Z,972.3
2017-12-16T12:40:08.994Z,972.3
2017-12-16T12:41:11.682Z,972.1
2017-12-16T12:42:14.258Z,972.3
2017-12-16T12:43:16.829Z,972.3
2017-12-16T12:44:19.324Z,972.2
2017-12-16T12:45:21.999Z,972.3
2017-12-16T12:46:24.587Z,972.2
2017-12-16T12:47:27.272Z,972.3
2017-12-16T12:48:29.866Z,972.3
2017-12-16T12:49:32.562Z,972.3
2017-12-16T12:50:35.125Z,972.3
2017-12-16T12:51:37.885Z,972.3
2017-12-16T12:52:40.537Z,972.3
2017-12-16T12:53:43.390Z,972.3
2017-12-16T12:54:45.917Z,972.3
2017-12-16T12:55:48.522Z,972.3
2017-12-16T12:56:51.163Z,972.3
2017-12-16T12:57:53.757Z,972.3
2017-12-16T12:58:56.362Z,972.3
2017-12-16T12:59:59.132Z,972.3
2017-12-16T13:01:01.678Z,972.3
2017-12-16T13:02:04.311Z,972.4
2017-12-16T13:03:06.756Z,972.3
2017-12-16T13:04:09.395Z,972.4
2017-12-16T13:05:11.907Z,972.3
2017-12-16T13:06:14.650Z,972.2
2017-12-16T13:07:17.101Z,972.4
2017-12-16T13:08:19.680Z,972.4
2017-12-16T13:09:22.487Z,972.3
2017-12-16T13:10:25.195Z,972.3
2017-12-16T13:11:27.720Z,972.3
2017-12-16T13:12:31.151Z,972.4
2017-12-16T13:13:33.764Z,972.3
2017-12-16T13:14:36.358Z,972.4
2017-12-16T13:15:38.817Z,972.4
2017-12-16T13:16:41.378Z,972.3
2017-12-16T13:17:43.891Z,972.4
2017-12-16T13:18:46.509Z,972.4
2017-12-16T13:19:49.055Z,972.4
2017-12-16T13:20:51.651Z,972.4
2017-12-16T13:21:54.261Z,972.4
2017-12-16T13:22:56.893Z,972.4
2017-12-16T13:24:00.421Z,972.4
2017-12-16T13:25:03.046Z,972.3
2017-12-16T13:26:05.802Z,972.4
2017-12-16T13:27:08.427Z,972.4
2017-12-16T13:28:11.891Z,972.4
2017-12-16T13:29:15.126Z,972.4
2017-12-16T13:30:17.681Z,972.3
2017-12-16T13:31:20.201Z,972.4